createdAt,value
2022-11-29T00:01:38.128Z,83.20
2022-11-29T00:04:06.056Z,46.92
2022-11-29T00:06:35.371Z,84.68
2022-11-29T00:09:09.194Z,125.75
2022-11-29T00:11:56.961Z,193.60
2022-11-29T00:14:26.674Z,115.70
2022-11-29T00:16:59.011Z,58.05
2022-11-29T00:19:26.468Z,101.05
2022-11-29T00:21:54.008Z,129.35
2022-11-29T00:24:21.470Z,87.13
2022-11-29T00:26:49.406Z,120.43
2022-11-29T00:29:17.138Z,118.97
2022-11-29T00:31:45.172Z,81.45
2022-11-29T00:34:13.058Z,78.78
2022-11-29T00:36:40.689Z,109.65
2022-11-29T00:39:11.647Z,79.85
2022-11-29T00:41:39.727Z,88.22
2022-11-29T00:44:07.414Z,48.90
2022-11-29T00:46:34.764Z,64.95
2022-11-29T00:49:02.190Z,61.83
2022-11-29T00:51:29.554Z,84.53
2022-11-29T00:53:56.928Z,55.15
2022-11-29T00:56:24.369Z,74.35
2022-11-29T00:58:51.730Z,42.15
2022-11-29T01:01:19.201Z,70.45
2022-11-29T01:03:46.662Z,29.00
2022-11-29T01:06:16.736Z,40.50
2022-11-29T01:08:49.478Z,52.33
2022-11-29T01:11:25.817Z,36.20
2022-11-29T01:13:59.121Z,65.65
2022-11-29T01:16:28.050Z,55.75
2022-11-29T01:18:55.628Z,55.28
2022-11-29T01:21:24.535Z,74.22
2022-11-29T01:23:53.304Z,37.22
2022-11-29T01:26:27.033Z,41.53
2022-11-29T01:28:56.214Z,65.28
2022-11-29T01:31:29.614Z,32.63
2022-11-29T01:33:59.833Z,39.33
2022-11-29T01:36:28.034Z,34.03
2022-11-29T01:38:55.474Z,32.70
2022-11-29T01:41:29.784Z,33.70
2022-11-29T01:43:59.907Z,44.88
2022-11-29T01:46:36.739Z,32.55
2022-11-29T01:49:10.511Z,36.20
2022-11-29T01:51:41.918Z,30.20
2022-11-29T01:54:12.402Z,36.38
2022-11-29T01:56:40.132Z,33.28
2022-11-29T01:59:13.427Z,50.55
2022-11-29T02:01:40.911Z,54.63
2022-11-29T02:04:08.859Z,31.40
2022-11-29T02:06:37.150Z,45.78
2022-11-29T02:09:05.467Z,42.10
2022-11-29T02:11:35.835Z,51.38
2022-11-29T02:14:45.644Z,77.00
2022-11-29T02:17:19.347Z,45.35
2022-11-29T02:20:08.355Z,51.20
2022-11-29T02:22:57.303Z,51.38
2022-11-29T02:25:36.656Z,54.25
2022-11-29T02:28:44.990Z,48.33
2022-11-29T02:31:12.301Z,54.30
2022-11-29T02:34:20.183Z,50.45
2022-11-29T02:37:25.506Z,28.58
2022-11-29T02:40:22.450Z,130.35
2022-11-29T02:43:20.847Z,45.20
2022-11-29T02:45:54.285Z,51.80
2022-11-29T02:48:43.673Z,37.95
2022-11-29T02:51:49.921Z,114.32
2022-11-29T02:54:39.032Z,58.92
2022-11-29T02:57:19.302Z,35.10
2022-11-29T03:00:06.752Z,33.70
2022-11-29T03:03:08.459Z,126.30
2022-11-29T03:05:47.940Z,44.17
2022-11-29T03:08:24.431Z,45.30
2022-11-29T03:11:10.010Z,68.35
2022-11-29T03:14:15.312Z,33.50
2022-11-29T03:16:59.699Z,36.60
2022-11-29T03:19:46.053Z,45.57
2022-11-29T03:22:43.177Z,56.72
2022-11-29T03:25:26.538Z,71.05
2022-11-29T03:28:14.067Z,49.00
2022-11-29T03:30:49.326Z,54.60
2022-11-29T03:33:27.137Z,67.18
2022-11-29T03:35:54.519Z,116.88
2022-11-29T03:38:43.783Z,77.85
2022-11-29T03:41:43.219Z,62.35
2022-11-29T03:44:16.699Z,72.22
2022-11-29T03:46:56.093Z,81.00
2022-11-29T03:49:28.942Z,55.90
2022-11-29T03:52:10.305Z,43.65
2022-11-29T03:54:53.327Z,106.65
2022-11-29T03:57:31.037Z,116.13
2022-11-29T04:00:17.847Z,61.15
2022-11-29T04:03:03.995Z,126.15
2022-11-29T04:06:04.001Z,63.38
2022-11-29T04:08:49.759Z,134.63
2022-11-29T04:11:56.262Z,106.13
2022-11-29T04:14:53.709Z,70.03
2022-11-29T04:17:36.017Z,37.22
2022-11-29T04:20:24.971Z,107.68
2022-11-29T04:23:26.966Z,42.47
2022-11-29T04:26:19.017Z,53.40
2022-11-29T04:29:12.684Z,51.72
2022-11-29T04:31:51.924Z,61.35
2022-11-29T04:34:44.021Z,72.07
2022-11-29T04:37:29.522Z,46.72
2022-11-29T04:40:22.981Z,95.20
2022-11-29T04:43:24.621Z,29.42
2022-11-29T04:46:05.424Z,43.45
2022-11-29T04:48:47.174Z,59.25
2022-11-29T04:51:46.635Z,67.22
2022-11-29T04:55:00.799Z,51.95
2022-11-29T04:58:00.289Z,32.20
2022-11-29T05:00:31.492Z,21.80
2022-11-29T05:03:00.136Z,56.95
2022-11-29T05:05:44.566Z,70.10
2022-11-29T05:08:43.059Z,35.95
2022-11-29T05:11:34.281Z,52.00
2022-11-29T05:14:24.460Z,30.58
2022-11-29T05:17:00.750Z,38.00
2022-11-29T05:20:05.851Z,51.28
2022-11-29T05:22:40.743Z,35.47
2022-11-29T05:25:18.195Z,46.90
2022-11-29T05:27:51.455Z,41.58
2022-11-29T05:30:22.188Z,48.17
2022-11-29T05:33:35.497Z,64.57
2022-11-29T05:36:17.805Z,54.25
2022-11-29T05:38:56.100Z,32.88
2022-11-29T05:41:47.919Z,26.10
2022-11-29T05:44:45.115Z,36.15
2022-11-29T05:47:20.645Z,49.88
2022-11-29T05:50:23.111Z,106.88
2022-11-29T05:53:19.236Z,49.45
2022-11-29T05:55:55.354Z,94.95
2022-11-29T05:59:03.809Z,49.03
2022-11-29T06:02:08.931Z,31.13
2022-11-29T06:05:04.613Z,34.53
2022-11-29T06:07:51.772Z,35.15
2022-11-29T06:10:22.803Z,46.58
2022-11-29T06:13:13.017Z,27.67
2022-11-29T06:16:10.359Z,35.83
2022-11-29T06:19:02.475Z,50.60
2022-11-29T06:22:05.794Z,27.67
2022-11-29T06:24:39.154Z,27.95
2022-11-29T06:27:22.592Z,28.95
2022-11-29T06:30:09.685Z,57.63
2022-11-29T06:32:55.400Z,41.33
2022-11-29T06:35:28.554Z,31.90
2022-11-29T06:37:58.384Z,39.90
2022-11-29T06:40:26.251Z,53.10
2022-11-29T06:42:53.524Z,38.30
2022-11-29T06:45:22.034Z,82.85
2022-11-29T06:47:55.978Z,61.08
2022-11-29T06:50:36.702Z,51.35
2022-11-29T06:53:24.985Z,26.90
2022-11-29T06:56:01.162Z,25.40
2022-11-29T06:58:40.492Z,33.33
2022-11-29T07:01:26.166Z,36.83
2022-11-29T07:04:26.405Z,33.92
2022-11-29T07:06:53.917Z,34.03
2022-11-29T07:09:25.980Z,56.95
2022-11-29T07:11:53.657Z,24.77
2022-11-29T07:14:21.337Z,36.22
2022-11-29T07:17:30.395Z,42.53
2022-11-29T07:20:10.338Z,31.20
2022-11-29T07:23:11.271Z,39.05
2022-11-29T07:26:15.499Z,36.45
2022-11-29T07:29:06.921Z,23.13
2022-11-29T07:31:46.226Z,22.73
2022-11-29T07:34:22.321Z,38.03
2022-11-29T07:36:58.394Z,34.92
2022-11-29T07:39:36.120Z,38.15
2022-11-29T07:42:10.985Z,54.88
2022-11-29T07:44:53.345Z,23.08
2022-11-29T07:47:20.716Z,29.90
2022-11-29T07:49:48.039Z,28.30
2022-11-29T07:52:17.366Z,35.13
2022-11-29T07:54:44.872Z,31.25
2022-11-29T07:57:12.489Z,35.35
2022-11-29T07:59:39.820Z,19.63
2022-11-29T08:02:11.617Z,56.97
2022-11-29T08:04:44.544Z,25.13
2022-11-29T08:07:12.228Z,36.25
2022-11-29T08:09:39.708Z,60.20
2022-11-29T08:12:07.579Z,37.03
2022-11-29T08:14:34.937Z,29.15
2022-11-29T08:17:02.472Z,29.70
2022-11-29T08:19:29.815Z,26.17
2022-11-29T08:21:57.194Z,20.67
2022-11-29T08:24:24.751Z,34.53
2022-11-29T08:26:52.201Z,29.95
2022-11-29T08:29:19.619Z,18.60
2022-11-29T08:31:53.524Z,34.17
2022-11-29T08:34:22.369Z,19.10
2022-11-29T08:36:50.557Z,20.58
2022-11-29T08:39:18.195Z,25.00
2022-11-29T08:41:45.586Z,16.83
2022-11-29T08:44:12.855Z,32.20
2022-11-29T08:46:58.572Z,31.40
2022-11-29T08:49:25.931Z,22.98
2022-11-29T08:52:13.283Z,21.95
2022-11-29T08:54:40.650Z,22.73
2022-11-29T08:57:39.929Z,18.23
2022-11-29T08:59:55.568Z,30.85
2022-11-29T09:02:23.019Z,18.80
2022-11-29T09:04:52.006Z,15.77
2022-11-29T09:07:19.372Z,17.00
2022-11-29T09:09:46.692Z,18.10
2022-11-29T09:12:14.163Z,13.52
2022-11-29T09:14:41.484Z,27.50
2022-11-29T09:17:08.798Z,13.95
2022-11-29T09:19:36.793Z,25.58
2022-11-29T09:22:04.185Z,31.92
2022-11-29T09:24:32.963Z,19.77
2022-11-29T09:27:00.470Z,27.52
2022-11-29T09:29:27.809Z,19.10
2022-11-29T09:31:55.290Z,20.52
2022-11-29T09:34:22.654Z,25.13
2022-11-29T09:36:50.102Z,27.38
2022-11-29T09:39:17.717Z,19.02
2022-11-29T09:42:09.645Z,35.58
2022-11-29T09:44:45.981Z,20.83
2022-11-29T09:47:17.037Z,17.90
2022-11-29T09:50:18.878Z,23.10
2022-11-29T09:53:08.746Z,17.58
2022-11-29T09:56:13.326Z,21.60
2022-11-29T09:58:58.987Z,17.75
2022-11-29T10:01:40.651Z,19.42
2022-11-29T10:04:18.308Z,23.13
2022-11-29T10:06:51.956Z,23.17
2022-11-29T10:09:27.399Z,19.85
2022-11-29T10:12:27.997Z,19.75
2022-11-29T10:15:05.650Z,21.73
2022-11-29T10:17:51.520Z,22.95
2022-11-29T10:20:20.238Z,15.95
2022-11-29T10:23:23.656Z,17.90
2022-11-29T10:25:53.245Z,24.90
2022-11-29T10:28:32.495Z,18.00
2022-11-29T10:31:29.321Z,18.05
2022-11-29T10:34:00.138Z,17.13
2022-11-29T10:36:39.372Z,18.98
2022-11-29T10:39:22.992Z,17.77
2022-11-29T10:42:02.521Z,22.30
2022-11-29T10:44:32.635Z,27.10
2022-11-29T10:47:07.843Z,18.70
2022-11-29T10:49:40.208Z,20.50
2022-11-29T10:52:19.600Z,21.50
2022-11-29T10:54:48.817Z,18.45
2022-11-29T10:57:19.942Z,19.15
2022-11-29T11:00:06.980Z,20.60
2022-11-29T11:02:35.077Z,26.55
2022-11-29T11:05:11.507Z,29.05
2022-11-29T11:07:39.156Z,19.90
2022-11-29T11:10:26.420Z,22.40
2022-11-29T11:13:06.816Z,18.30
2022-11-29T11:15:34.345Z,22.75
2022-11-29T11:18:06.992Z,21.67
2022-11-29T11:20:39.587Z,17.60
2022-11-29T11:23:28.695Z,19.65
2022-11-29T11:26:05.580Z,20.52
2022-11-29T11:28:40.605Z,21.50
2022-11-29T11:31:10.353Z,17.42
2022-11-29T11:33:40.379Z,22.05
2022-11-29T11:36:08.092Z,19.92
2022-11-29T11:38:56.565Z,22.00
2022-11-29T11:41:53.667Z,24.98
2022-11-29T11:44:48.396Z,23.80
2022-11-29T11:47:17.817Z,17.17
2022-11-29T11:50:07.200Z,25.95
2022-11-29T11:52:40.180Z,24.20
2022-11-29T11:55:36.871Z,18.35
2022-11-29T11:58:13.104Z,20.15
2022-11-29T12:01:12.281Z,21.30
2022-11-29T12:03:54.693Z,18.27
2022-11-29T12:06:24.820Z,15.95
2022-11-29T12:09:21.332Z,19.60
2022-11-29T12:12:20.358Z,16.90
2022-11-29T12:15:03.764Z,20.13
2022-11-29T12:17:39.859Z,21.50
2022-11-29T12:20:13.088Z,22.05
2022-11-29T12:22:51.097Z,17.25
2022-11-29T12:25:23.465Z,18.67
2022-11-29T12:27:52.637Z,15.20
2022-11-29T12:30:20.640Z,16.42
2022-11-29T12:33:03.704Z,20.25
2022-11-29T12:36:00.447Z,15.43
2022-11-29T12:38:42.634Z,20.20
2022-11-29T12:41:28.629Z,16.65
2022-11-29T12:44:11.104Z,18.70
2022-11-29T12:46:39.253Z,20.15
2022-11-29T12:49:19.918Z,20.25
2022-11-29T12:52:08.266Z,20.23
2022-11-29T12:54:44.000Z,20.48
2022-11-29T12:57:31.089Z,17.67
2022-11-29T13:00:09.928Z,20.38
2022-11-29T13:03:17.934Z,24.90
2022-11-29T13:05:51.374Z,18.35
2022-11-29T13:08:47.928Z,19.20
2022-11-29T13:11:35.864Z,19.20
2022-11-29T13:14:41.666Z,21.33
2022-11-29T13:17:05.814Z,17.90
2022-11-29T13:19:36.112Z,23.05
2022-11-29T13:22:16.889Z,22.33
2022-11-29T13:24:50.053Z,14.35
2022-11-29T13:27:29.584Z,24.33
2022-11-29T13:30:00.205Z,17.33
2022-11-29T13:32:47.313Z,20.30
2022-11-29T13:35:31.756Z,21.45
2022-11-29T13:38:13.150Z,19.40
2022-11-29T13:41:12.763Z,23.02
2022-11-29T13:43:51.486Z,21.38
2022-11-29T13:46:32.833Z,15.98
2022-11-29T13:49:00.218Z,20.92
2022-11-29T13:51:38.070Z,24.20
2022-11-29T13:54:26.916Z,18.45
2022-11-29T13:57:09.404Z,20.38
2022-11-29T13:59:44.250Z,22.08
2022-11-29T14:02:29.788Z,18.60
2022-11-29T14:04:57.551Z,21.85
2022-11-29T14:07:24.979Z,19.90
2022-11-29T14:10:29.102Z,21.23
2022-11-29T14:12:57.535Z,20.60
2022-11-29T14:15:31.227Z,23.60
2022-11-29T14:18:04.021Z,23.38
2022-11-29T14:20:32.390Z,19.58
2022-11-29T14:23:05.614Z,25.63
2022-11-29T14:25:53.697Z,24.33
2022-11-29T14:28:21.290Z,21.17
2022-11-29T14:30:57.298Z,22.42
2022-11-29T14:33:55.552Z,21.20
2022-11-29T14:36:22.844Z,19.80
2022-11-29T14:38:53.042Z,21.45
2022-11-29T14:41:58.277Z,22.08
2022-11-29T14:44:28.236Z,20.20
2022-11-29T14:47:13.823Z,20.80
2022-11-29T14:49:44.575Z,22.05
2022-11-29T14:52:14.928Z,22.05
2022-11-29T14:55:01.148Z,22.38
2022-11-29T14:57:47.190Z,22.50
2022-11-29T15:00:15.608Z,22.92
2022-11-29T15:02:50.921Z,21.38
2022-11-29T15:05:27.985Z,23.27
2022-11-29T15:08:16.224Z,26.25
2022-11-29T15:10:57.227Z,17.60
2022-11-29T15:13:38.524Z,18.23
2022-11-29T15:16:35.160Z,18.50
2022-11-29T15:19:26.770Z,18.40
2022-11-29T15:22:21.012Z,21.90
2022-11-29T15:25:03.214Z,23.27
2022-11-29T15:27:30.544Z,20.65
2022-11-29T15:29:59.926Z,24.48
2022-11-29T15:32:30.824Z,22.45
2022-11-29T15:34:59.184Z,19.35
2022-11-29T15:37:44.386Z,25.35
2022-11-29T15:40:23.719Z,27.23
2022-11-29T15:43:01.939Z,21.98
2022-11-29T15:45:32.858Z,25.70
2022-11-29T15:48:24.844Z,20.95
2022-11-29T15:51:14.208Z,19.83
2022-11-29T15:53:53.979Z,20.10
2022-11-29T15:56:48.889Z,17.85
2022-11-29T15:59:39.338Z,22.73
2022-11-29T16:02:28.692Z,20.65
2022-11-29T16:05:22.454Z,20.30
2022-11-29T16:07:57.582Z,22.33
2022-11-29T16:10:35.973Z,18.60
2022-11-29T16:13:24.282Z,22.38
2022-11-29T16:16:04.118Z,23.77
2022-11-29T16:18:32.309Z,40.85
2022-11-29T16:21:04.982Z,36.53
2022-11-29T16:23:37.206Z,44.40
2022-11-29T16:26:22.152Z,25.20
2022-11-29T16:28:52.803Z,29.52
2022-11-29T16:31:34.320Z,16.67
2022-11-29T16:34:29.806Z,19.67
2022-11-29T16:39:37.197Z,31.73
2022-11-29T16:42:22.037Z,35.03
2022-11-29T16:45:02.058Z,35.60
2022-11-29T16:47:53.003Z,26.00
2022-11-29T16:50:22.640Z,48.08
2022-11-29T16:52:56.072Z,41.58
2022-11-29T16:55:24.470Z,31.73
2022-11-29T16:57:52.350Z,40.15
2022-11-29T17:00:28.934Z,32.03
2022-11-29T17:02:56.375Z,18.45
2022-11-29T17:05:23.820Z,31.73
2022-11-29T17:07:51.720Z,14.05
2022-11-29T17:10:23.047Z,34.65
2022-11-29T17:12:50.487Z,25.42
2022-11-29T17:15:17.858Z,19.38
2022-11-29T17:17:45.188Z,12.77
2022-11-29T17:20:13.807Z,15.65
2022-11-29T17:22:41.282Z,12.90
2022-11-29T17:25:10.431Z,25.30
2022-11-29T17:27:37.795Z,19.48
2022-11-29T17:30:07.114Z,30.48
2022-11-29T17:32:35.801Z,19.20
2022-11-29T17:35:04.401Z,24.75
2022-11-29T17:37:31.995Z,14.82
2022-11-29T17:39:59.396Z,23.27
2022-11-29T17:42:26.838Z,15.25
2022-11-29T17:44:54.257Z,28.65
2022-11-29T17:47:21.700Z,33.60
2022-11-29T17:49:49.275Z,14.70
2022-11-29T17:52:16.840Z,13.77
2022-11-29T17:54:44.242Z,17.38
2022-11-29T17:57:11.701Z,12.98
2022-11-29T17:59:39.169Z,25.15
2022-11-29T18:02:06.858Z,12.88
2022-11-29T18:04:34.360Z,13.55
2022-11-29T18:07:02.144Z,10.98
2022-11-29T18:09:30.073Z,11.52
2022-11-29T18:11:57.458Z,16.60
2022-11-29T18:14:28.203Z,21.17
2022-11-29T18:16:55.848Z,11.70
2022-11-29T18:19:23.719Z,10.70
2022-11-29T18:21:51.922Z,13.85
2022-11-29T18:24:19.523Z,15.07
2022-11-29T18:26:47.430Z,12.95
2022-11-29T18:29:14.893Z,11.07
2022-11-29T18:31:44.961Z,12.73
2022-11-29T18:37:33.720Z,14.82
2022-11-29T18:40:24.116Z,11.47
2022-11-29T18:42:51.775Z,9.43
2022-11-29T18:45:22.343Z,12.38
2022-11-29T18:47:50.372Z,14.27
2022-11-29T18:56:48.693Z,13.43
2022-11-29T18:59:23.181Z,11.05
2022-11-29T19:02:05.666Z,11.88
2022-11-29T19:04:38.411Z,10.70
2022-11-29T19:07:06.153Z,9.95
2022-11-29T19:09:36.416Z,11.60
2022-11-29T19:12:04.148Z,11.65
2022-11-29T19:14:32.417Z,11.50
2022-11-29T19:17:03.158Z,11.68
2022-11-29T19:19:45.314Z,11.27
2022-11-29T19:26:27.504Z,9.50
2022-11-29T19:29:03.370Z,9.38
2022-11-29T19:31:31.383Z,10.90
2022-11-29T19:40:16.316Z,9.73
2022-11-29T19:42:47.317Z,10.20
2022-11-29T19:48:21.392Z,10.65
2022-11-29T19:50:52.729Z,10.13
2022-11-29T19:53:23.285Z,14.18
2022-11-29T19:55:51.138Z,10.80
2022-11-29T19:58:22.027Z,10.30
2022-11-29T20:00:49.825Z,13.07
2022-11-29T20:03:26.140Z,12.60
2022-11-29T20:06:01.078Z,9.00
2022-11-29T20:15:34.882Z,10.75
2022-11-29T20:18:07.346Z,17.02
2022-11-29T20:33:45.917Z,9.27
2022-11-29T20:36:25.120Z,9.77
2022-11-29T20:39:22.709Z,11.30
2022-11-29T20:42:20.777Z,8.18
2022-11-29T20:44:59.877Z,8.45
2022-11-29T20:47:53.502Z,8.52
2022-11-29T20:50:39.073Z,10.75
2022-11-29T20:53:18.555Z,10.55
2022-11-29T20:59:41.696Z,11.40
2022-11-29T21:02:09.457Z,10.90
2022-11-29T22:23:30.070Z,14.98
2022-11-29T22:26:06.557Z,13.18
2022-11-29T22:28:38.156Z,11.90
2022-11-29T22:31:09.025Z,13.07
